sensor_id;sensor_type;location;lat;lon;timestamp;P1;durP1;ratioP1;P2;durP2;ratioP2
3407;SDS011;1717;50.240;8.406;2023-03-11T00:00:18;3.87;;;2.10;;
3407;SDS011;1717;50.240;8.406;2023-03-11T00:02:47;1.87;;;1.73;;
3407;SDS011;1717;50.240;8.406;2023-03-11T00:05:15;3.07;;;2.80;;
3407;SDS011;1717;50.240;8.406;2023-03-11T00:07:51;4.37;;;2.10;;
3407;SDS011;1717;50.240;8.406;2023-03-11T00:10:19;2.03;;;1.93;;
3407;SDS011;1717;50.240;8.406;2023-03-11T00:12:48;1.87;;;1.70;;
3407;SDS011;1717;50.240;8.406;2023-03-11T00:15:15;3.57;;;2.60;;
3407;SDS011;1717;50.240;8.406;2023-03-11T00:17:42;3.50;;;2.43;;
3407;SDS011;1717;50.240;8.406;2023-03-11T00:20:13;3.73;;;2.40;;
3407;SDS011;1717;50.240;8.406;2023-03-11T00:22:43;2.43;;;1.83;;
3407;SDS011;1717;50.240;8.406;2023-03-11T00:25:12;2.20;;;2.00;;
3407;SDS011;1717;50.240;8.406;2023-03-11T00:27:39;3.60;;;1.73;;
3407;SDS011;1717;50.240;8.406;2023-03-11T00:30:12;2.73;;;2.23;;
3407;SDS011;1717;50.240;8.406;2023-03-11T00:32:40;7.17;;;2.17;;
3407;SDS011;1717;50.240;8.406;2023-03-11T00:35:07;3.20;;;1.67;;
3407;SDS011;1717;50.240;8.406;2023-03-11T00:37:40;4.93;;;1.83;;
3407;SDS011;1717;50.240;8.406;2023-03-11T00:40:12;3.10;;;2.07;;
3407;SDS011;1717;50.240;8.406;2023-03-11T00:42:39;2.00;;;1.80;;
3407;SDS011;1717;50.240;8.406;2023-03-11T00:45:06;2.07;;;1.87;;
3407;SDS011;1717;50.240;8.406;2023-03-11T00:47:33;2.13;;;1.83;;
3407;SDS011;1717;50.240;8.406;2023-03-11T00:50:00;3.60;;;1.50;;
3407;SDS011;1717;50.240;8.406;2023-03-11T00:52:27;3.97;;;1.87;;
3407;SDS011;1717;50.240;8.406;2023-03-11T00:54:54;3.13;;;1.77;;
3407;SDS011;1717;50.240;8.406;2023-03-11T00:57:22;3.57;;;1.60;;
3407;SDS011;1717;50.240;8.406;2023-03-11T00:59:50;2.60;;;2.00;;
3407;SDS011;1717;50.240;8.406;2023-03-11T01:02:17;2.00;;;1.90;;
3407;SDS011;1717;50.240;8.406;2023-03-11T01:04:44;3.00;;;1.90;;
3407;SDS011;1717;50.240;8.406;2023-03-11T01:07:11;3.50;;;2.63;;
3407;SDS011;1717;50.240;8.406;2023-03-11T01:09:38;2.83;;;1.63;;
3407;SDS011;1717;50.240;8.406;2023-03-11T01:12:04;1.70;;;1.60;;
3407;SDS011;1717;50.240;8.406;2023-03-11T01:14:33;1.57;;;1.47;;
3407;SDS011;1717;50.240;8.406;2023-03-11T01:16:59;3.10;;;1.90;;
3407;SDS011;1717;50.240;8.406;2023-03-11T01:19:26;5.37;;;1.60;;
3407;SDS011;1717;50.240;8.406;2023-03-11T01:21:53;1.70;;;1.57;;
3407;SDS011;1717;50.240;8.406;2023-03-11T01:24:20;8.10;;;1.70;;
3407;SDS011;1717;50.240;8.406;2023-03-11T01:26:47;1.80;;;1.40;;
3407;SDS011;1717;50.240;8.406;2023-03-11T01:29:14;3.03;;;1.67;;
3407;SDS011;1717;50.240;8.406;2023-03-11T01:31:42;4.03;;;2.10;;
3407;SDS011;1717;50.240;8.406;2023-03-11T01:34:09;3.57;;;1.50;;
3407;SDS011;1717;50.240;8.406;2023-03-11T01:36:36;6.93;;;2.30;;
3407;SDS011;1717;50.240;8.406;2023-03-11T01:39:03;4.00;;;1.67;;
3407;SDS011;1717;50.240;8.406;2023-03-11T01:41:30;2.73;;;2.03;;
3407;SDS011;1717;50.240;8.406;2023-03-11T01:43:57;5.20;;;1.57;;
3407;SDS011;1717;50.240;8.406;2023-03-11T01:46:24;4.17;;;2.00;;
3407;SDS011;1717;50.240;8.406;2023-03-11T01:48:54;5.03;;;2.30;;
3407;SDS011;1717;50.240;8.406;2023-03-11T01:51:23;1.97;;;1.60;;
3407;SDS011;1717;50.240;8.406;2023-03-11T01:53:53;3.33;;;1.87;;
3407;SDS011;1717;50.240;8.406;2023-03-11T01:56:22;2.03;;;1.67;;
3407;SDS011;1717;50.240;8.406;2023-03-11T01:58:49;2.60;;;1.50;;
3407;SDS011;1717;50.240;8.406;2023-03-11T02:01:18;5.00;;;1.90;;
3407;SDS011;1717;50.240;8.406;2023-03-11T02:03:46;3.60;;;2.07;;
3407;SDS011;1717;50.240;8.406;2023-03-11T02:06:16;7.50;;;2.57;;
3407;SDS011;1717;50.240;8.406;2023-03-11T02:08:45;2.03;;;1.80;;
3407;SDS011;1717;50.240;8.406;2023-03-11T02:11:14;4.03;;;2.20;;
3407;SDS011;1717;50.240;8.406;2023-03-11T02:13:44;3.70;;;1.37;;
3407;SDS011;1717;50.240;8.406;2023-03-11T02:16:11;2.97;;;2.00;;
3407;SDS011;1717;50.240;8.406;2023-03-11T02:18:39;2.00;;;1.80;;
3407;SDS011;1717;50.240;8.406;2023-03-11T02:21:11;3.57;;;2.43;;
3407;SDS011;1717;50.240;8.406;2023-03-11T02:23:49;2.87;;;1.77;;
3407;SDS011;1717;50.240;8.406;2023-03-11T02:26:22;3.10;;;2.07;;
3407;SDS011;1717;50.240;8.406;2023-03-11T02:28:53;2.17;;;1.73;;
3407;SDS011;1717;50.240;8.406;2023-03-11T02:31:21;3.27;;;1.90;;
3407;SDS011;1717;50.240;8.406;2023-03-11T02:33:50;5.07;;;2.40;;
3407;SDS011;1717;50.240;8.406;2023-03-11T02:36:29;1.77;;;1.67;;
3407;SDS011;1717;50.240;8.406;2023-03-11T02:38:56;3.80;;;2.00;;
3407;SDS011;1717;50.240;8.406;2023-03-11T02:41:23;4.30;;;2.17;;
3407;SDS011;1717;50.240;8.406;2023-03-11T02:43:50;2.90;;;1.50;;
3407;SDS011;1717;50.240;8.406;2023-03-11T02:46:19;1.90;;;1.70;;
3407;SDS011;1717;50.240;8.406;2023-03-11T02:48:46;5.53;;;2.00;;
3407;SDS011;1717;50.240;8.406;2023-03-11T02:51:14;4.20;;;2.90;;
3407;SDS011;1717;50.240;8.406;2023-03-11T02:53:43;2.13;;;1.73;;
3407;SDS011;1717;50.240;8.406;2023-03-11T02:56:13;4.17;;;2.10;;
3407;SDS011;1717;50.240;8.406;2023-03-11T02:58:40;2.20;;;1.93;;
3407;SDS011;1717;50.240;8.406;2023-03-11T03:01:07;8.77;;;1.80;;
3407;SDS011;1717;50.240;8.406;2023-03-11T03:03:35;6.70;;;2.33;;
3407;SDS011;1717;50.240;8.406;2023-03-11T03:06:02;4.23;;;1.63;;
3407;SDS011;1717;50.240;8.406;2023-03-11T03:08:30;5.40;;;1.53;;
3407;SDS011;1717;50.240;8.406;2023-03-11T03:10:57;4.73;;;1.67;;
3407;SDS011;1717;50.240;8.406;2023-03-11T03:13:25;3.63;;;1.30;;
3407;SDS011;1717;50.240;8.406;2023-03-11T03:15:52;4.70;;;1.60;;
3407;SDS011;1717;50.240;8.406;2023-03-11T03:18:20;2.17;;;1.73;;
3407;SDS011;1717;50.240;8.406;2023-03-11T03:20:49;3.30;;;2.00;;
3407;SDS011;1717;50.240;8.406;2023-03-11T03:23:16;1.77;;;1.30;;
3407;SDS011;1717;50.240;8.406;2023-03-11T03:25:44;2.97;;;1.80;;
3407;SDS011;1717;50.240;8.406;2023-03-11T03:28:11;3.87;;;1.93;;
3407;SDS011;1717;50.240;8.406;2023-03-11T03:30:39;4.80;;;1.80;;
3407;SDS011;1717;50.240;8.406;2023-03-11T03:33:06;3.43;;;1.80;;
3407;SDS011;1717;50.240;8.406;2023-03-11T03:35:34;5.60;;;1.83;;
3407;SDS011;1717;50.240;8.406;2023-03-11T03:38:02;1.90;;;1.80;;
3407;SDS011;1717;50.240;8.406;2023-03-11T03:40:29;2.70;;;1.80;;
3407;SDS011;1717;50.240;8.406;2023-03-11T03:42:55;3.50;;;2.30;;
3407;SDS011;1717;50.240;8.406;2023-03-11T03:45:22;4.00;;;2.13;;
3407;SDS011;1717;50.240;8.406;2023-03-11T03:47:49;4.03;;;2.40;;
3407;SDS011;1717;50.240;8.406;2023-03-11T03:50:16;2.63;;;1.87;;
3407;SDS011;1717;50.240;8.406;2023-03-11T03:52:43;4.90;;;2.07;;
3407;SDS011;1717;50.240;8.406;2023-03-11T03:55:11;3.10;;;2.53;;
3407;SDS011;1717;50.240;8.406;2023-03-11T03:57:38;3.33;;;2.20;;
3407;SDS011;1717;50.240;8.406;2023-03-11T04:00:05;2.83;;;2.60;;
3407;SDS011;1717;50.240;8.406;2023-03-11T04:02:34;3.80;;;1.90;;
3407;SDS011;1717;50.240;8.406;2023-03-11T04:05:00;5.10;;;2.80;;
3407;SDS011;1717;50.240;8.406;2023-03-11T04:07:28;4.43;;;2.00;;
3407;SDS011;1717;50.240;8.406;2023-03-11T04:09:54;5.13;;;2.13;;
3407;SDS011;1717;50.240;8.406;2023-03-11T04:12:22;2.57;;;2.37;;
3407;SDS011;1717;50.240;8.406;2023-03-11T04:14:49;5.90;;;2.80;;
3407;SDS011;1717;50.240;8.406;2023-03-11T04:17:16;4.73;;;2.30;;
3407;SDS011;1717;50.240;8.406;2023-03-11T04:19:43;6.20;;;3.07;;
3407;SDS011;1717;50.240;8.406;2023-03-11T04:22:10;7.33;;;2.87;;
3407;SDS011;1717;50.240;8.406;2023-03-11T04:24:37;4.13;;;3.10;;
3407;SDS011;1717;50.240;8.406;2023-03-11T04:27:04;9.17;;;3.20;;
3407;SDS011;1717;50.240;8.406;2023-03-11T04:29:32;5.00;;;3.27;;
3407;SDS011;1717;50.240;8.406;2023-03-11T04:31:59;3.63;;;3.07;;
3407;SDS011;1717;50.240;8.406;2023-03-11T04:34:36;3.73;;;2.43;;
3407;SDS011;1717;50.240;8.406;2023-03-11T04:37:06;5.53;;;2.90;;
3407;SDS011;1717;50.240;8.406;2023-03-11T04:39:44;2.90;;;2.70;;
3407;SDS011;1717;50.240;8.406;2023-03-11T04:42:23;4.10;;;2.53;;
3407;SDS011;1717;50.240;8.406;2023-03-11T04:44:59;6.47;;;3.30;;
3407;SDS011;1717;50.240;8.406;2023-03-11T04:47:28;4.13;;;2.80;;
3407;SDS011;1717;50.240;8.406;2023-03-11T04:49:59;7.23;;;2.17;;
3407;SDS011;1717;50.240;8.406;2023-03-11T04:52:35;7.33;;;3.40;;
3407;SDS011;1717;50.240;8.406;2023-03-11T04:55:12;6.90;;;3.00;;
3407;SDS011;1717;50.240;8.406;2023-03-11T04:57:43;3.77;;;2.60;;
3407;SDS011;1717;50.240;8.406;2023-03-11T05:00:18;7.20;;;2.90;;
3407;SDS011;1717;50.240;8.406;2023-03-11T05:03:05;9.40;;;3.50;;
3407;SDS011;1717;50.240;8.406;2023-03-11T05:05:48;3.37;;;3.07;;
3407;SDS011;1717;50.240;8.406;2023-03-11T05:08:23;4.37;;;2.80;;
3407;SDS011;1717;50.240;8.406;2023-03-11T05:10:55;4.10;;;3.77;;
3407;SDS011;1717;50.240;8.406;2023-03-11T05:13:26;3.40;;;2.60;;
3407;SDS011;1717;50.240;8.406;2023-03-11T05:16:03;4.77;;;3.00;;
3407;SDS011;1717;50.240;8.406;2023-03-11T05:18:31;6.90;;;3.03;;
3407;SDS011;1717;50.240;8.406;2023-03-11T05:21:02;4.13;;;2.20;;
3407;SDS011;1717;50.240;8.406;2023-03-11T05:23:31;9.07;;;3.47;;
3407;SDS011;1717;50.240;8.406;2023-03-11T05:26:03;4.63;;;3.77;;
3407;SDS011;1717;50.240;8.406;2023-03-11T05:28:37;5.67;;;2.97;;
3407;SDS011;1717;50.240;8.406;2023-03-11T05:31:12;3.67;;;2.10;;
3407;SDS011;1717;50.240;8.406;2023-03-11T05:33:57;7.13;;;2.13;;
3407;SDS011;1717;50.240;8.406;2023-03-11T05:36:27;3.90;;;2.60;;
3407;SDS011;1717;50.240;8.406;2023-03-11T05:39:02;7.87;;;3.53;;
3407;SDS011;1717;50.240;8.406;2023-03-11T05:41:33;3.63;;;2.20;;
3407;SDS011;1717;50.240;8.406;2023-03-11T05:44:02;5.07;;;2.60;;
3407;SDS011;1717;50.240;8.406;2023-03-11T05:46:36;5.87;;;3.87;;
3407;SDS011;1717;50.240;8.406;2023-03-11T05:49:19;5.00;;;2.80;;
3407;SDS011;1717;50.240;8.406;2023-03-11T05:51:50;11.77;;;2.83;;
3407;SDS011;1717;50.240;8.406;2023-03-11T05:54:23;4.53;;;2.70;;
3407;SDS011;1717;50.240;8.406;2023-03-11T05:57:02;10.23;;;2.70;;
3407;SDS011;1717;50.240;8.406;2023-03-11T05:59:34;4.60;;;2.30;;
3407;SDS011;1717;50.240;8.406;2023-03-11T06:02:18;4.83;;;2.77;;
3407;SDS011;1717;50.240;8.406;2023-03-11T06:04:50;6.23;;;2.63;;
3407;SDS011;1717;50.240;8.406;2023-03-11T06:07:44;9.90;;;2.97;;
3407;SDS011;1717;50.240;8.406;2023-03-11T06:10:22;7.73;;;2.80;;
3407;SDS011;1717;50.240;8.406;2023-03-11T06:13:15;5.50;;;2.93;;
3407;SDS011;1717;50.240;8.406;2023-03-11T06:18:44;5.80;;;2.50;;
3407;SDS011;1717;50.240;8.406;2023-03-11T06:21:18;5.10;;;2.40;;
3407;SDS011;1717;50.240;8.406;2023-03-11T06:23:54;5.60;;;2.37;;
3407;SDS011;1717;50.240;8.406;2023-03-11T06:26:21;4.10;;;2.80;;
3407;SDS011;1717;50.240;8.406;2023-03-11T06:28:52;3.57;;;2.70;;
3407;SDS011;1717;50.240;8.406;2023-03-11T06:31:31;4.20;;;2.07;;
3407;SDS011;1717;50.240;8.406;2023-03-11T06:33:59;3.73;;;2.67;;
3407;SDS011;1717;50.240;8.406;2023-03-11T06:36:36;4.47;;;2.67;;
3407;SDS011;1717;50.240;8.406;2023-03-11T06:39:03;9.33;;;2.50;;
3407;SDS011;1717;50.240;8.406;2023-03-11T06:41:38;6.17;;;3.30;;
3407;SDS011;1717;50.240;8.406;2023-03-11T06:44:15;7.10;;;2.70;;
3407;SDS011;1717;50.240;8.406;2023-03-11T06:46:45;6.27;;;3.07;;
3407;SDS011;1717;50.240;8.406;2023-03-11T06:49:17;4.23;;;2.97;;
3407;SDS011;1717;50.240;8.406;2023-03-11T06:51:43;6.10;;;2.80;;
3407;SDS011;1717;50.240;8.406;2023-03-11T06:54:11;3.00;;;2.53;;
3407;SDS011;1717;50.240;8.406;2023-03-11T06:56:46;7.90;;;2.97;;
3407;SDS011;1717;50.240;8.406;2023-03-11T06:59:19;3.80;;;2.40;;
3407;SDS011;1717;50.240;8.406;2023-03-11T07:01:47;6.30;;;3.27;;
3407;SDS011;1717;50.240;8.406;2023-03-11T07:04:31;8.27;;;2.43;;
3407;SDS011;1717;50.240;8.406;2023-03-11T07:07:00;7.30;;;2.43;;
3407;SDS011;1717;50.240;8.406;2023-03-11T07:09:28;8.90;;;2.93;;
3407;SDS011;1717;50.240;8.406;2023-03-11T07:11:57;4.43;;;2.33;;
3407;SDS011;1717;50.240;8.406;2023-03-11T07:14:26;6.20;;;2.77;;
3407;SDS011;1717;50.240;8.406;2023-03-11T07:16:52;11.23;;;3.10;;
3407;SDS011;1717;50.240;8.406;2023-03-11T07:19:23;4.13;;;2.70;;
3407;SDS011;1717;50.240;8.406;2023-03-11T07:21:56;6.43;;;2.23;;
3407;SDS011;1717;50.240;8.406;2023-03-11T07:24:28;6.33;;;3.03;;
3407;SDS011;1717;50.240;8.406;2023-03-11T07:27:02;6.50;;;3.87;;
3407;SDS011;1717;50.240;8.406;2023-03-11T07:29:41;3.20;;;2.80;;
3407;SDS011;1717;50.240;8.406;2023-03-11T07:32:10;5.23;;;3.00;;
3407;SDS011;1717;50.240;8.406;2023-03-11T07:34:41;5.40;;;3.00;;
3407;SDS011;1717;50.240;8.406;2023-03-11T07:37:10;5.03;;;2.77;;
3407;SDS011;1717;50.240;8.406;2023-03-11T07:39:38;6.50;;;2.67;;
3407;SDS011;1717;50.240;8.406;2023-03-11T07:42:07;5.57;;;2.60;;
3407;SDS011;1717;50.240;8.406;2023-03-11T07:44:38;6.90;;;2.83;;
3407;SDS011;1717;50.240;8.406;2023-03-11T07:47:12;10.60;;;3.17;;
3407;SDS011;1717;50.240;8.406;2023-03-11T07:49:42;3.90;;;2.67;;
3407;SDS011;1717;50.240;8.406;2023-03-11T07:52:11;6.80;;;3.20;;
3407;SDS011;1717;50.240;8.406;2023-03-11T07:54:38;7.53;;;3.00;;
3407;SDS011;1717;50.240;8.406;2023-03-11T07:57:06;7.50;;;3.53;;
3407;SDS011;1717;50.240;8.406;2023-03-11T07:59:41;10.93;;;3.53;;
3407;SDS011;1717;50.240;8.406;2023-03-11T08:02:10;6.83;;;3.37;;
3407;SDS011;1717;50.240;8.406;2023-03-11T08:04:37;4.63;;;2.67;;
3407;SDS011;1717;50.240;8.406;2023-03-11T08:07:05;9.80;;;3.30;;
3407;SDS011;1717;50.240;8.406;2023-03-11T08:09:36;6.50;;;2.40;;
3407;SDS011;1717;50.240;8.406;2023-03-11T08:12:11;4.03;;;3.20;;
3407;SDS011;1717;50.240;8.406;2023-03-11T08:14:42;4.13;;;3.17;;
3407;SDS011;1717;50.240;8.406;2023-03-11T08:17:20;4.27;;;2.77;;
3407;SDS011;1717;50.240;8.406;2023-03-11T08:19:52;4.83;;;3.23;;
3407;SDS011;1717;50.240;8.406;2023-03-11T08:22:23;6.43;;;3.70;;
3407;SDS011;1717;50.240;8.406;2023-03-11T08:24:53;5.40;;;3.10;;
3407;SDS011;1717;50.240;8.406;2023-03-11T08:27:27;3.50;;;2.73;;
3407;SDS011;1717;50.240;8.406;2023-03-11T08:29:54;3.40;;;2.97;;
3407;SDS011;1717;50.240;8.406;2023-03-11T08:32:21;7.80;;;4.80;;
3407;SDS011;1717;50.240;8.406;2023-03-11T08:34:47;3.30;;;2.93;;
3407;SDS011;1717;50.240;8.406;2023-03-11T08:37:23;8.47;;;2.83;;
3407;SDS011;1717;50.240;8.406;2023-03-11T08:39:50;22.00;;;4.00;;
3407;SDS011;1717;50.240;8.406;2023-03-11T08:42:22;9.73;;;4.30;;
3407;SDS011;1717;50.240;8.406;2023-03-11T08:44:50;5.90;;;3.70;;
3407;SDS011;1717;50.240;8.406;2023-03-11T08:47:17;6.07;;;3.23;;
3407;SDS011;1717;50.240;8.406;2023-03-11T08:49:47;11.93;;;4.20;;
3407;SDS011;1717;50.240;8.406;2023-03-11T08:52:15;7.63;;;4.20;;
3407;SDS011;1717;50.240;8.406;2023-03-11T08:54:44;5.40;;;3.90;;
3407;SDS011;1717;50.240;8.406;2023-03-11T08:57:13;7.17;;;3.50;;
3407;SDS011;1717;50.240;8.406;2023-03-11T08:59:41;7.07;;;3.37;;
3407;SDS011;1717;50.240;8.406;2023-03-11T09:02:11;6.47;;;3.00;;
3407;SDS011;1717;50.240;8.406;2023-03-11T09:04:38;5.70;;;3.60;;
3407;SDS011;1717;50.240;8.406;2023-03-11T09:07:05;5.00;;;3.83;;
3407;SDS011;1717;50.240;8.406;2023-03-11T09:09:37;9.73;;;3.70;;
3407;SDS011;1717;50.240;8.406;2023-03-11T09:12:05;7.57;;;3.10;;
3407;SDS011;1717;50.240;8.406;2023-03-11T09:14:41;4.17;;;2.90;;
3407;SDS011;1717;50.240;8.406;2023-03-11T09:17:14;5.77;;;3.30;;
3407;SDS011;1717;50.240;8.406;2023-03-11T09:19:44;7.87;;;3.23;;
3407;SDS011;1717;50.240;8.406;2023-03-11T09:22:12;3.40;;;3.10;;
3407;SDS011;1717;50.240;8.406;2023-03-11T09:24:39;4.37;;;3.97;;
3407;SDS011;1717;50.240;8.406;2023-03-11T09:27:09;4.50;;;3.60;;
3407;SDS011;1717;50.240;8.406;2023-03-11T09:29:39;3.83;;;3.40;;
3407;SDS011;1717;50.240;8.406;2023-03-11T09:32:06;4.47;;;3.90;;
3407;SDS011;1717;50.240;8.406;2023-03-11T09:34:35;6.93;;;4.17;;
3407;SDS011;1717;50.240;8.406;2023-03-11T09:37:02;4.67;;;3.27;;
3407;SDS011;1717;50.240;8.406;2023-03-11T09:39:29;4.90;;;3.40;;
3407;SDS011;1717;50.240;8.406;2023-03-11T09:42:02;4.47;;;4.00;;
3407;SDS011;1717;50.240;8.406;2023-03-11T09:44:47;5.07;;;3.67;;
3407;SDS011;1717;50.240;8.406;2023-03-11T09:47:27;6.87;;;3.60;;
3407;SDS011;1717;50.240;8.406;2023-03-11T09:50:14;3.30;;;3.00;;
3407;SDS011;1717;50.240;8.406;2023-03-11T09:52:50;6.30;;;3.53;;
3407;SDS011;1717;50.240;8.406;2023-03-11T09:55:34;8.10;;;4.20;;
3407;SDS011;1717;50.240;8.406;2023-03-11T09:58:08;7.07;;;4.50;;
3407;SDS011;1717;50.240;8.406;2023-03-11T10:00:43;5.60;;;4.20;;
3407;SDS011;1717;50.240;8.406;2023-03-11T10:03:26;7.43;;;5.03;;
3407;SDS011;1717;50.240;8.406;2023-03-11T10:06:13;11.03;;;5.23;;
3407;SDS011;1717;50.240;8.406;2023-03-11T10:08:48;8.33;;;6.03;;
3407;SDS011;1717;50.240;8.406;2023-03-11T10:14:27;7.10;;;6.00;;
3407;SDS011;1717;50.240;8.406;2023-03-11T10:17:12;8.93;;;5.57;;
3407;SDS011;1717;50.240;8.406;2023-03-11T10:19:55;5.67;;;5.17;;
3407;SDS011;1717;50.240;8.406;2023-03-11T10:22:36;7.77;;;5.50;;
3407;SDS011;1717;50.240;8.406;2023-03-11T10:25:10;6.93;;;5.40;;
3407;SDS011;1717;50.240;8.406;2023-03-11T10:27:42;8.43;;;4.50;;
3407;SDS011;1717;50.240;8.406;2023-03-11T10:30:22;6.53;;;5.13;;
3407;SDS011;1717;50.240;8.406;2023-03-11T10:32:57;6.30;;;4.23;;
3407;SDS011;1717;50.240;8.406;2023-03-11T10:35:33;5.70;;;4.13;;
3407;SDS011;1717;50.240;8.406;2023-03-11T10:38:13;6.90;;;4.00;;
3407;SDS011;1717;50.240;8.406;2023-03-11T10:40:57;4.80;;;3.73;;
3407;SDS011;1717;50.240;8.406;2023-03-11T10:43:32;6.00;;;3.90;;
3407;SDS011;1717;50.240;8.406;2023-03-11T10:46:12;3.57;;;3.10;;
3407;SDS011;1717;50.240;8.406;2023-03-11T10:48:50;5.30;;;3.63;;
3407;SDS011;1717;50.240;8.406;2023-03-11T10:51:19;5.20;;;2.70;;
3407;SDS011;1717;50.240;8.406;2023-03-11T10:53:55;3.30;;;2.57;;
3407;SDS011;1717;50.240;8.406;2023-03-11T10:56:33;4.33;;;2.30;;
3407;SDS011;1717;50.240;8.406;2023-03-11T10:59:09;4.40;;;2.23;;
3407;SDS011;1717;50.240;8.406;2023-03-11T11:01:53;2.90;;;2.17;;
3407;SDS011;1717;50.240;8.406;2023-03-11T11:04:29;4.93;;;3.07;;
3407;SDS011;1717;50.240;8.406;2023-03-11T11:07:19;5.30;;;1.90;;
3407;SDS011;1717;50.240;8.406;2023-03-11T11:10:12;3.47;;;2.20;;
3407;SDS011;1717;50.240;8.406;2023-03-11T11:12:54;3.77;;;2.20;;
3407;SDS011;1717;50.240;8.406;2023-03-11T11:15:31;4.07;;;2.03;;
3407;SDS011;1717;50.240;8.406;2023-03-11T11:18:01;2.00;;;1.80;;
3407;SDS011;1717;50.240;8.406;2023-03-11T11:20:31;4.27;;;1.57;;
3407;SDS011;1717;50.240;8.406;2023-03-11T11:23:27;4.57;;;2.43;;
3407;SDS011;1717;50.240;8.406;2023-03-11T11:26:03;3.27;;;1.77;;
3407;SDS011;1717;50.240;8.406;2023-03-11T11:28:51;2.90;;;1.80;;
3407;SDS011;1717;50.240;8.406;2023-03-11T11:31:33;6.60;;;2.00;;
3407;SDS011;1717;50.240;8.406;2023-03-11T11:36:58;9.00;;;2.93;;
3407;SDS011;1717;50.240;8.406;2023-03-11T11:39:31;5.50;;;1.90;;
3407;SDS011;1717;50.240;8.406;2023-03-11T11:42:15;2.80;;;2.27;;
3407;SDS011;1717;50.240;8.406;2023-03-11T11:44:45;4.47;;;2.73;;
3407;SDS011;1717;50.240;8.406;2023-03-11T11:47:17;2.83;;;2.50;;
3407;SDS011;1717;50.240;8.406;2023-03-11T11:49:51;6.83;;;3.30;;
3407;SDS011;1717;50.240;8.406;2023-03-11T11:52:22;3.70;;;2.60;;
3407;SDS011;1717;50.240;8.406;2023-03-11T11:54:55;3.77;;;2.80;;
3407;SDS011;1717;50.240;8.406;2023-03-11T11:57:28;3.90;;;2.40;;
3407;SDS011;1717;50.240;8.406;2023-03-11T11:59:55;5.67;;;2.70;;
3407;SDS011;1717;50.240;8.406;2023-03-11T12:02:28;1.80;;;1.70;;
3407;SDS011;1717;50.240;8.406;2023-03-11T12:05:09;3.20;;;2.90;;
3407;SDS011;1717;50.240;8.406;2023-03-11T12:07:57;1.70;;;1.60;;
3407;SDS011;1717;50.240;8.406;2023-03-11T12:10:38;2.83;;;2.63;;
3407;SDS011;1717;50.240;8.406;2023-03-11T12:16:14;2.77;;;2.50;;
3407;SDS011;1717;50.240;8.406;2023-03-11T12:18:55;2.20;;;2.00;;
3407;SDS011;1717;50.240;8.406;2023-03-11T12:21:27;4.13;;;2.50;;
3407;SDS011;1717;50.240;8.406;2023-03-11T12:24:11;7.17;;;3.00;;
3407;SDS011;1717;50.240;8.406;2023-03-11T12:26:53;7.87;;;4.87;;
3407;SDS011;1717;50.240;8.406;2023-03-11T12:29:28;3.10;;;2.43;;
3407;SDS011;1717;50.240;8.406;2023-03-11T12:32:05;3.97;;;2.60;;
3407;SDS011;1717;50.240;8.406;2023-03-11T12:34:36;5.90;;;2.60;;
3407;SDS011;1717;50.240;8.406;2023-03-11T12:37:04;3.20;;;2.10;;
3407;SDS011;1717;50.240;8.406;2023-03-11T12:39:44;4.17;;;2.57;;
3407;SDS011;1717;50.240;8.406;2023-03-11T12:42:16;4.47;;;3.37;;
3407;SDS011;1717;50.240;8.406;2023-03-11T12:44:48;4.77;;;2.70;;
3407;SDS011;1717;50.240;8.406;2023-03-11T12:47:23;11.87;;;3.37;;
3407;SDS011;1717;50.240;8.406;2023-03-11T12:53:08;9.00;;;5.60;;
3407;SDS011;1717;50.240;8.406;2023-03-11T12:55:54;6.90;;;3.60;;
3407;SDS011;1717;50.240;8.406;2023-03-11T13:01:33;5.07;;;2.87;;
3407;SDS011;1717;50.240;8.406;2023-03-11T13:04:24;4.00;;;2.07;;
3407;SDS011;1717;50.240;8.406;2023-03-11T13:07:03;6.80;;;2.73;;
3407;SDS011;1717;50.240;8.406;2023-03-11T13:09:58;4.43;;;2.60;;
3407;SDS011;1717;50.240;8.406;2023-03-11T13:12:40;7.10;;;2.23;;
3407;SDS011;1717;50.240;8.406;2023-03-11T13:15:30;2.63;;;2.13;;
3407;SDS011;1717;50.240;8.406;2023-03-11T13:18:01;5.40;;;1.90;;
3407;SDS011;1717;50.240;8.406;2023-03-11T13:20:52;3.33;;;2.23;;
3407;SDS011;1717;50.240;8.406;2023-03-11T13:23:31;4.10;;;2.17;;
3407;SDS011;1717;50.240;8.406;2023-03-11T13:26:08;3.30;;;2.20;;
3407;SDS011;1717;50.240;8.406;2023-03-11T13:28:53;3.40;;;1.90;;
3407;SDS011;1717;50.240;8.406;2023-03-11T13:31:41;3.40;;;2.53;;
3407;SDS011;1717;50.240;8.406;2023-03-11T13:34:20;5.63;;;2.17;;
3407;SDS011;1717;50.240;8.406;2023-03-11T13:37:08;4.27;;;1.90;;
3407;SDS011;1717;50.240;8.406;2023-03-11T13:39:51;6.03;;;1.83;;
3407;SDS011;1717;50.240;8.406;2023-03-11T13:42:39;2.30;;;1.77;;
3407;SDS011;1717;50.240;8.406;2023-03-11T13:45:18;7.20;;;1.40;;
3407;SDS011;1717;50.240;8.406;2023-03-11T13:47:52;3.03;;;1.50;;
3407;SDS011;1717;50.240;8.406;2023-03-11T13:50:28;3.87;;;1.57;;
3407;SDS011;1717;50.240;8.406;2023-03-11T13:53:06;1.50;;;1.40;;
3407;SDS011;1717;50.240;8.406;2023-03-11T13:55:37;3.53;;;1.50;;
3407;SDS011;1717;50.240;8.406;2023-03-11T13:58:19;3.13;;;1.80;;
3407;SDS011;1717;50.240;8.406;2023-03-11T14:00:52;3.73;;;2.03;;
3407;SDS011;1717;50.240;8.406;2023-03-11T14:03:24;3.17;;;1.87;;
3407;SDS011;1717;50.240;8.406;2023-03-11T14:05:57;2.50;;;1.40;;
3407;SDS011;1717;50.240;8.406;2023-03-11T14:08:29;2.10;;;1.40;;
3407;SDS011;1717;50.240;8.406;2023-03-11T14:10:59;4.03;;;1.70;;
3407;SDS011;1717;50.240;8.406;2023-03-11T14:13:27;2.50;;;1.80;;
3407;SDS011;1717;50.240;8.406;2023-03-11T14:16:01;5.10;;;1.30;;
3407;SDS011;1717;50.240;8.406;2023-03-11T14:18:35;2.03;;;1.53;;
3407;SDS011;1717;50.240;8.406;2023-03-11T14:21:05;2.27;;;1.60;;
3407;SDS011;1717;50.240;8.406;2023-03-11T14:23:39;1.50;;;1.30;;
3407;SDS011;1717;50.240;8.406;2023-03-11T14:26:11;5.17;;;1.83;;
3407;SDS011;1717;50.240;8.406;2023-03-11T14:28:43;2.60;;;1.73;;
3407;SDS011;1717;50.240;8.406;2023-03-11T14:31:29;3.70;;;1.63;;
3407;SDS011;1717;50.240;8.406;2023-03-11T14:34:01;4.00;;;1.73;;
3407;SDS011;1717;50.240;8.406;2023-03-11T14:36:39;8.00;;;2.23;;
3407;SDS011;1717;50.240;8.406;2023-03-11T14:39:28;3.70;;;2.50;;
3407;SDS011;1717;50.240;8.406;2023-03-11T14:41:58;1.90;;;1.70;;
3407;SDS011;1717;50.240;8.406;2023-03-11T14:44:35;2.33;;;1.50;;
3407;SDS011;1717;50.240;8.406;2023-03-11T14:47:10;3.00;;;2.17;;
3407;SDS011;1717;50.240;8.406;2023-03-11T14:49:43;3.20;;;2.20;;
3407;SDS011;1717;50.240;8.406;2023-03-11T14:52:15;4.47;;;1.30;;
3407;SDS011;1717;50.240;8.406;2023-03-11T14:54:47;2.17;;;1.00;;
3407;SDS011;1717;50.240;8.406;2023-03-11T14:57:18;3.07;;;1.47;;
3407;SDS011;1717;50.240;8.406;2023-03-11T14:59:48;3.57;;;2.23;;
3407;SDS011;1717;50.240;8.406;2023-03-11T15:05:09;2.30;;;1.40;;
3407;SDS011;1717;50.240;8.406;2023-03-11T15:07:43;6.40;;;3.20;;
3407;SDS011;1717;50.240;8.406;2023-03-11T15:10:17;2.00;;;1.47;;
3407;SDS011;1717;50.240;8.406;2023-03-11T15:12:50;1.87;;;1.63;;
3407;SDS011;1717;50.240;8.406;2023-03-11T15:15:35;2.90;;;1.87;;
3407;SDS011;1717;50.240;8.406;2023-03-11T15:18:17;2.10;;;2.00;;
3407;SDS011;1717;50.240;8.406;2023-03-11T15:21:02;3.37;;;2.27;;
3407;SDS011;1717;50.240;8.406;2023-03-11T15:23:33;5.17;;;1.63;;
3407;SDS011;1717;50.240;8.406;2023-03-11T15:26:02;3.97;;;1.83;;
3407;SDS011;1717;50.240;8.406;2023-03-11T15:28:34;2.53;;;2.07;;
3407;SDS011;1717;50.240;8.406;2023-03-11T15:31:13;4.03;;;2.20;;
3407;SDS011;1717;50.240;8.406;2023-03-11T15:33:56;3.93;;;1.67;;
3407;SDS011;1717;50.240;8.406;2023-03-11T15:36:36;3.33;;;1.80;;
3407;SDS011;1717;50.240;8.406;2023-03-11T15:39:11;1.50;;;1.40;;
3407;SDS011;1717;50.240;8.406;2023-03-11T15:41:56;5.43;;;2.00;;
3407;SDS011;1717;50.240;8.406;2023-03-11T15:44:29;3.27;;;1.80;;
3407;SDS011;1717;50.240;8.406;2023-03-11T15:47:02;2.40;;;1.40;;
3407;SDS011;1717;50.240;8.406;2023-03-11T15:49:32;3.47;;;1.60;;
3407;SDS011;1717;50.240;8.406;2023-03-11T15:51:59;3.57;;;1.77;;
3407;SDS011;1717;50.240;8.406;2023-03-11T15:54:32;2.00;;;1.60;;
3407;SDS011;1717;50.240;8.406;2023-03-11T15:57:01;3.20;;;1.40;;
3407;SDS011;1717;50.240;8.406;2023-03-11T15:59:31;7.20;;;1.60;;
3407;SDS011;1717;50.240;8.406;2023-03-11T16:02:00;2.33;;;1.37;;
3407;SDS011;1717;50.240;8.406;2023-03-11T16:04:27;2.17;;;1.20;;
3407;SDS011;1717;50.240;8.406;2023-03-11T16:06:56;1.67;;;1.40;;
3407;SDS011;1717;50.240;8.406;2023-03-11T16:09:22;5.93;;;1.30;;